createdAt,value
2023-03-12T00:00:08.895Z,97265.06
2023-03-12T00:04:11.814Z,97265.28
2023-03-12T00:08:16.385Z,97275.75
2023-03-12T00:12:19.374Z,97275.75
2023-03-12T00:16:23.474Z,97277.50
2023-03-12T00:20:27.037Z,97275.75
2023-03-12T00:24:31.577Z,97282.53
2023-03-12T00:28:35.572Z,97292.56
2023-03-12T00:32:39.563Z,97288.94
2023-03-12T00:36:42.672Z,97292.13
2023-03-12T00:40:47.365Z,97289.44
2023-03-12T00:44:50.267Z,97288.38
2023-03-12T00:48:53.470Z,97293.53
2023-03-12T00:52:56.494Z,97293.53
2023-03-12T00:57:01.269Z,97309.88
2023-03-12T01:01:04.820Z,97309.16
2023-03-12T01:05:10.093Z,97305.88
2023-03-12T01:09:13.292Z,97302.72
2023-03-12T01:13:18.109Z,97302.00
2023-03-12T01:17:21.163Z,97301.66
2023-03-12T01:21:24.827Z,97296.97
2023-03-12T01:25:27.739Z,97303.34
2023-03-12T01:29:32.895Z,97311.38
2023-03-12T01:33:35.921Z,97309.16
2023-03-12T01:37:39.146Z,97309.97
2023-03-12T01:41:42.201Z,97312.91
2023-03-12T01:46:23.062Z,97308.53
2023-03-12T01:50:26.394Z,97308.31
2023-03-12T01:55:12.883Z,97301.47
2023-03-12T01:59:21.563Z,97309.44
2023-03-12T02:03:26.251Z,97306.88
2023-03-12T02:07:29.569Z,97304.53
2023-03-12T02:11:32.896Z,97307.31
2023-03-12T02:15:37.129Z,97318.13
2023-03-12T02:19:50.531Z,97316.13
2023-03-12T02:24:02.512Z,97314.25
2023-03-12T02:28:10.879Z,97318.22
2023-03-12T02:32:21.661Z,97317.00
2023-03-12T02:36:25.069Z,97328.63
2023-03-12T02:40:32.811Z,97326.41
2023-03-12T02:44:38.274Z,97339.34
2023-03-12T02:48:41.558Z,97345.50
2023-03-12T02:52:44.806Z,97352.50
2023-03-12T02:56:48.436Z,97355.16
2023-03-12T03:00:53.295Z,97362.88
2023-03-12T03:04:56.530Z,97362.53
2023-03-12T03:09:00.200Z,97355.94
2023-03-12T03:13:03.199Z,97367.19
2023-03-12T03:17:07.946Z,97360.34
2023-03-12T03:21:16.687Z,97364.69
2023-03-12T03:25:22.452Z,97371.72
2023-03-12T03:29:25.365Z,97376.41
2023-03-12T03:33:30.977Z,97378.66
2023-03-12T03:37:34.191Z,97376.19
2023-03-12T03:41:37.693Z,97374.53
2023-03-12T03:45:40.831Z,97379.91
2023-03-12T03:49:45.420Z,97376.84
2023-03-12T03:53:48.311Z,97373.81
2023-03-12T03:57:51.656Z,97381.97
2023-03-12T04:01:54.562Z,97379.59
2023-03-12T04:06:02.291Z,97390.56
2023-03-12T04:10:06.141Z,97393.03
2023-03-12T04:14:09.096Z,97395.97
2023-03-12T04:18:12.144Z,97397.16
2023-03-12T04:22:16.772Z,97394.84
2023-03-12T04:26:20.636Z,97409.00
2023-03-12T04:30:24.062Z,97404.34
2023-03-12T04:34:27.092Z,97400.84
2023-03-12T04:38:32.501Z,97402.63
2023-03-12T04:42:36.490Z,97408.19
2023-03-12T04:46:39.884Z,97407.91
2023-03-12T04:50:43.630Z,97414.63
2023-03-12T04:54:48.234Z,97414.38
2023-03-12T04:58:51.344Z,97416.91
2023-03-12T05:02:55.411Z,97414.16
2023-03-12T05:06:58.490Z,97422.44
2023-03-12T05:11:03.292Z,97421.31
2023-03-12T05:15:06.928Z,97442.38
2023-03-12T05:19:10.102Z,97440.34
2023-03-12T05:23:13.098Z,97441.78
2023-03-12T05:27:19.996Z,97445.72
2023-03-12T05:31:23.193Z,97443.56
2023-03-12T05:35:26.623Z,97447.38
2023-03-12T05:39:29.810Z,97455.25
2023-03-12T05:43:35.356Z,97457.19
2023-03-12T05:47:38.253Z,97459.06
2023-03-12T05:51:42.187Z,97462.03
2023-03-12T05:55:45.296Z,97470.13
2023-03-12T05:59:50.327Z,97475.34
2023-03-12T06:03:53.250Z,97474.31
2023-03-12T06:07:56.470Z,97478.88
2023-03-12T06:11:59.669Z,97475.25
2023-03-12T06:16:10.011Z,97476.81
2023-03-12T06:20:13.689Z,97482.03
2023-03-12T06:24:16.929Z,97463.63
2023-03-12T06:28:20.069Z,97467.63
2023-03-12T06:32:25.062Z,97476.78
2023-03-12T06:36:28.392Z,97470.53
2023-03-12T06:40:31.578Z,97475.09
2023-03-12T06:44:34.589Z,97467.34
2023-03-12T06:48:41.772Z,97470.47
2023-03-12T06:52:44.834Z,97461.19
2023-03-12T06:56:48.142Z,97482.03
2023-03-12T07:00:51.248Z,97470.88
2023-03-12T07:04:56.484Z,97466.38
2023-03-12T07:08:59.576Z,97457.34
2023-03-12T07:13:02.969Z,97453.13
2023-03-12T07:17:08.560Z,97470.09
2023-03-12T07:21:13.214Z,97466.03
2023-03-12T07:25:18.639Z,97473.34
2023-03-12T07:29:22.350Z,97472.16
2023-03-12T07:33:25.342Z,97466.78
2023-03-12T07:37:30.126Z,97471.38
2023-03-12T07:41:33.086Z,97465.50
2023-03-12T07:45:36.379Z,97483.81
2023-03-12T07:49:41.808Z,97487.13
2023-03-12T07:53:46.527Z,97489.81
2023-03-12T07:57:49.545Z,97475.78
2023-03-12T08:01:53.076Z,97479.38
2023-03-12T08:06:01.513Z,97478.22
2023-03-12T08:10:09.791Z,97481.41
2023-03-12T08:14:16.708Z,97478.59
2023-03-12T08:18:21.043Z,97477.22
2023-03-12T08:22:24.365Z,97481.88
2023-03-12T08:26:29.022Z,97477.72
2023-03-12T08:30:32.708Z,97475.75
2023-03-12T08:34:37.027Z,97485.88
2023-03-12T08:38:40.489Z,97486.63
2023-03-12T08:42:46.617Z,97487.09
2023-03-12T08:46:49.752Z,97495.19
2023-03-12T08:50:53.522Z,97484.03
2023-03-12T08:54:56.673Z,97488.75
2023-03-12T08:59:01.491Z,97493.16
2023-03-12T09:03:05.181Z,97489.72
2023-03-12T09:07:09.917Z,97496.56
2023-03-12T09:11:14.575Z,97499.34
2023-03-12T09:15:19.612Z,97493.44
2023-03-12T09:19:22.772Z,97502.22
2023-03-12T09:23:26.943Z,97497.34
2023-03-12T09:27:29.799Z,97502.09
2023-03-12T09:31:34.976Z,97502.22
2023-03-12T09:35:38.261Z,97500.25
2023-03-12T09:39:41.444Z,97495.31
2023-03-12T09:43:50.394Z,97486.38
2023-03-12T09:47:57.481Z,97479.66
2023-03-12T09:52:03.569Z,97484.75
2023-03-12T09:56:10.631Z,97480.09
2023-03-12T10:00:16.734Z,97475.41
2023-03-12T10:04:56.393Z,97473.91
2023-03-12T10:09:18.127Z,97461.59
2023-03-12T10:13:48.991Z,97464.47
2023-03-12T10:18:05.448Z,97458.53
2023-03-12T10:22:26.729Z,97463.84
2023-03-12T10:26:36.384Z,97455.56
2023-03-12T10:30:42.948Z,97474.66
2023-03-12T10:34:50.033Z,97467.00
2023-03-12T10:38:54.572Z,97471.94
2023-03-12T10:42:58.150Z,97472.38
2023-03-12T10:47:08.475Z,97475.22
2023-03-12T10:51:13.257Z,97475.56
2023-03-12T10:55:26.702Z,97482.97
2023-03-12T10:59:32.505Z,97480.25
2023-03-12T11:03:35.978Z,97481.78
2023-03-12T11:07:45.610Z,97494.78
2023-03-12T11:11:51.675Z,97485.34
2023-03-12T11:15:56.471Z,97488.09
2023-03-12T11:19:59.688Z,97487.66
2023-03-12T11:24:09.606Z,97475.16
2023-03-12T11:28:24.945Z,97489.97
2023-03-12T11:32:34.666Z,97479.88
2023-03-12T11:36:49.182Z,97475.34
2023-03-12T11:41:08.630Z,97475.50
2023-03-12T11:45:24.283Z,97465.41
2023-03-12T11:49:40.663Z,97463.66
2023-03-12T11:54:03.808Z,97464.97
2023-03-12T11:58:24.726Z,97474.19
2023-03-12T12:02:53.295Z,97473.03
2023-03-12T12:07:07.143Z,97477.91
2023-03-12T12:11:16.442Z,97483.09
2023-03-12T12:15:32.302Z,97475.47
2023-03-12T12:19:51.064Z,97462.94
2023-03-12T12:24:00.826Z,97462.78
2023-03-12T12:28:25.490Z,97459.06
2023-03-12T12:32:41.324Z,97466.25
2023-03-12T12:36:50.934Z,97462.81
2023-03-12T12:40:56.640Z,97456.75
2023-03-12T12:45:04.115Z,97448.56
2023-03-12T12:49:13.766Z,97454.41
2023-03-12T12:53:24.775Z,97457.66
2023-03-12T12:57:38.332Z,97456.00
2023-03-12T13:01:42.711Z,97459.16
2023-03-12T13:05:54.333Z,97461.09
2023-03-12T13:09:59.987Z,97464.53
2023-03-12T13:14:21.930Z,97465.19
2023-03-12T13:18:27.270Z,97466.53
2023-03-12T13:22:55.727Z,97473.06
2023-03-12T13:27:06.346Z,97472.41
2023-03-12T13:31:36.634Z,97471.13
2023-03-12T13:35:41.265Z,97474.06
2023-03-12T13:39:46.067Z,97454.97
2023-03-12T13:43:54.892Z,97452.53
2023-03-12T13:48:03.137Z,97463.25
2023-03-12T13:52:21.113Z,97463.25
2023-03-12T13:56:28.700Z,97451.50
2023-03-12T14:00:39.462Z,97452.78
2023-03-12T14:04:43.556Z,97448.56
2023-03-12T14:08:58.872Z,97455.22
2023-03-12T14:13:14.766Z,97453.66
2023-03-12T14:17:21.866Z,97444.06
2023-03-12T14:21:30.261Z,97445.41
2023-03-12T14:25:37.719Z,97425.72
2023-03-12T14:29:44.801Z,97426.56
2023-03-12T14:34:06.753Z,97430.75
2023-03-12T14:38:17.420Z,97430.59
2023-03-12T14:42:26.618Z,97427.50
2023-03-12T14:46:29.607Z,97428.13
2023-03-12T14:50:41.922Z,97434.81
2023-03-12T14:54:55.032Z,97425.19
2023-03-12T14:58:59.617Z,97430.41
2023-03-12T15:03:12.066Z,97425.53
2023-03-12T15:07:22.484Z,97431.03
2023-03-12T15:11:28.662Z,97425.78
2023-03-12T15:15:38.264Z,97427.69
2023-03-12T15:19:41.568Z,97427.94
2023-03-12T15:23:49.388Z,97428.91
2023-03-12T15:28:09.369Z,97431.66
2023-03-12T15:32:16.120Z,97428.22
2023-03-12T15:36:28.694Z,97432.75
2023-03-12T15:40:33.778Z,97423.78
2023-03-12T15:44:47.070Z,97420.34
2023-03-12T15:48:53.224Z,97412.28
2023-03-12T15:53:06.153Z,97392.88
2023-03-12T15:57:24.501Z,97396.75
2023-03-12T16:01:28.274Z,97401.53
2023-03-12T16:05:34.493Z,97403.78
2023-03-12T16:09:37.403Z,97414.75
2023-03-12T16:13:42.392Z,97419.44
2023-03-12T16:17:45.627Z,97422.31
2023-03-12T16:21:49.564Z,97421.16
2023-03-12T16:25:55.752Z,97426.34
2023-03-12T16:30:03.311Z,97427.47
2023-03-12T16:34:06.410Z,97429.22
2023-03-12T16:38:10.065Z,97428.72
2023-03-12T16:42:27.143Z,97432.16
2023-03-12T16:46:33.487Z,97423.69
2023-03-12T16:50:36.545Z,97432.75
2023-03-12T16:54:40.021Z,97422.38
2023-03-12T16:58:43.071Z,97419.38
2023-03-12T17:02:48.352Z,97429.13
2023-03-12T17:06:51.532Z,97432.00
2023-03-12T17:10:56.440Z,97446.91
2023-03-12T17:15:01.684Z,97437.50
2023-03-12T17:19:06.749Z,97447.72
2023-03-12T17:23:12.378Z,97444.31
2023-03-12T17:27:15.716Z,97444.59
2023-03-12T17:31:18.779Z,97429.63
2023-03-12T17:35:24.033Z,97424.22
2023-03-12T17:39:27.339Z,97423.91
2023-03-12T17:43:30.691Z,97428.75
2023-03-12T17:47:34.047Z,97452.81
2023-03-12T17:51:38.994Z,97443.84
2023-03-12T17:55:41.845Z,97447.50
2023-03-12T17:59:45.180Z,97440.56
2023-03-12T18:03:50.112Z,97444.91
2023-03-12T18:07:55.558Z,97449.03
2023-03-12T18:11:58.533Z,97450.63
2023-03-12T18:16:05.961Z,97454.41
2023-03-12T18:20:13.683Z,97464.66
2023-03-12T18:24:18.261Z,97457.41
2023-03-12T18:28:22.481Z,97473.75
2023-03-12T18:32:25.796Z,97471.69
2023-03-12T18:36:28.799Z,97480.97
2023-03-12T18:40:34.258Z,97481.63
2023-03-12T18:44:37.364Z,97500.16
2023-03-12T18:48:43.636Z,97489.63
2023-03-12T18:52:47.367Z,97489.50
2023-03-12T18:56:52.516Z,97491.94
2023-03-12T19:00:57.181Z,97499.72
2023-03-12T19:05:00.390Z,97510.25
2023-03-12T19:09:03.918Z,97505.88
2023-03-12T19:13:08.528Z,97501.81
2023-03-12T19:17:12.017Z,97497.84
2023-03-12T19:21:15.558Z,97487.63
2023-03-12T19:25:19.098Z,97496.81
2023-03-12T19:29:23.726Z,97492.34
2023-03-12T19:33:28.109Z,97484.63
2023-03-12T19:37:31.532Z,97471.72
2023-03-12T19:41:34.447Z,97474.34
2023-03-12T19:45:39.504Z,97471.81
2023-03-12T19:49:42.487Z,97481.53
2023-03-12T19:53:47.004Z,97479.13
2023-03-12T19:57:50.392Z,97477.75
2023-03-12T20:01:55.829Z,97480.63
2023-03-12T20:06:00.618Z,97472.16
2023-03-12T20:10:04.820Z,97466.16
2023-03-12T20:14:07.834Z,97474.06
2023-03-12T20:18:13.263Z,97476.00
2023-03-12T20:22:18.070Z,97465.94
2023-03-12T20:26:21.910Z,97476.69
2023-03-12T20:30:28.854Z,97469.75
2023-03-12T20:34:33.927Z,97480.97
2023-03-12T20:38:37.102Z,97476.38
2023-03-12T20:42:43.761Z,97481.81
2023-03-12T20:46:58.881Z,97472.03
2023-03-12T20:51:03.982Z,97472.56
2023-03-12T20:55:07.860Z,97467.13
2023-03-12T20:59:13.033Z,97474.44
2023-03-12T21:03:17.008Z,97480.69
2023-03-12T21:07:22.072Z,97484.31
2023-03-12T21:11:27.840Z,97487.94
2023-03-12T21:15:31.810Z,97496.50
2023-03-12T21:19:35.051Z,97496.31
2023-03-12T21:23:40.264Z,97502.69
2023-03-12T21:27:50.539Z,97507.84
2023-03-12T21:31:54.750Z,97524.34
2023-03-12T21:35:58.079Z,97524.94
2023-03-12T21:40:02.946Z,97524.69
2023-03-12T21:44:06.116Z,97527.47
2023-03-12T21:48:09.721Z,97528.81
2023-03-12T21:52:12.678Z,97522.97
2023-03-12T21:56:17.283Z,97529.94
2023-03-12T22:00:21.139Z,97526.00
2023-03-12T22:04:25.342Z,97523.00
2023-03-12T22:08:28.324Z,97519.91
2023-03-12T22:12:32.971Z,97533.78
2023-03-12T22:16:38.665Z,97527.25
2023-03-12T22:20:41.851Z,97527.41
2023-03-12T22:24:44.756Z,97537.22
2023-03-12T22:28:52.342Z,97534.34
2023-03-12T22:32:55.378Z,97534.63
2023-03-12T22:36:58.877Z,97519.94
2023-03-12T22:41:12.746Z,97521.00
2023-03-12T22:45:17.458Z,97516.91
2023-03-12T22:49:20.400Z,97519.91
2023-03-12T22:53:23.813Z,97512.53
2023-03-12T22:57:26.793Z,97501.69
2023-03-12T23:01:31.566Z,97493.50
2023-03-12T23:05:36.133Z,97492.44
2023-03-12T23:09:39.561Z,97491.59
2023-03-12T23:13:46.384Z,97482.09
2023-03-12T23:17:51.087Z,97487.25
2023-03-12T23:21:54.119Z,97491.72
2023-03-12T23:25:59.000Z,97483.69
2023-03-12T23:30:01.906Z,97492.69
2023-03-12T23:34:06.900Z,97477.97
2023-03-12T23:38:10.141Z,97478.69
2023-03-12T23:42:13.440Z,97488.31
2023-03-12T23:46:17.955Z,97478.38
2023-03-12T23:50:22.803Z,97477.16
2023-03-12T23:54:25.812Z,97468.97
2023-03-12T23:58:29.972Z,97459.19
